sensor_id;sensor_type;location;lat;lon;timestamp;P1;durP1;ratioP1;P2;durP2;ratioP2
17917;SDS011;9084;50.956;3.106;2023-04-26T00:00:53;6.13;;;3.80;;
17917;SDS011;9084;50.956;3.106;2023-04-26T00:03:25;7.40;;;3.80;;
17917;SDS011;9084;50.956;3.106;2023-04-26T00:05:54;6.60;;;3.70;;
17917;SDS011;9084;50.956;3.106;2023-04-26T00:08:21;5.13;;;3.47;;
17917;SDS011;9084;50.956;3.106;2023-04-26T00:10:47;4.23;;;3.50;;
17917;SDS011;9084;50.956;3.106;2023-04-26T00:13:13;6.03;;;3.50;;
17917;SDS011;9084;50.956;3.106;2023-04-26T00:15:38;3.77;;;3.33;;
17917;SDS011;9084;50.956;3.106;2023-04-26T00:18:04;6.83;;;3.63;;
17917;SDS011;9084;50.956;3.106;2023-04-26T00:20:30;5.50;;;3.20;;
17917;SDS011;9084;50.956;3.106;2023-04-26T00:22:55;6.97;;;3.33;;
17917;SDS011;9084;50.956;3.106;2023-04-26T00:25:21;5.30;;;3.47;;
17917;SDS011;9084;50.956;3.106;2023-04-26T00:27:47;8.47;;;4.10;;
17917;SDS011;9084;50.956;3.106;2023-04-26T00:30:15;3.33;;;3.03;;
17917;SDS011;9084;50.956;3.106;2023-04-26T00:32:43;5.77;;;3.30;;
17917;SDS011;9084;50.956;3.106;2023-04-26T00:35:09;4.93;;;3.43;;
17917;SDS011;9084;50.956;3.106;2023-04-26T00:37:39;6.37;;;3.60;;
17917;SDS011;9084;50.956;3.106;2023-04-26T00:40:05;5.27;;;3.67;;
17917;SDS011;9084;50.956;3.106;2023-04-26T00:42:31;4.70;;;3.53;;
17917;SDS011;9084;50.956;3.106;2023-04-26T00:44:59;4.90;;;3.40;;
17917;SDS011;9084;50.956;3.106;2023-04-26T00:47:28;3.93;;;3.40;;
17917;SDS011;9084;50.956;3.106;2023-04-26T00:49:54;3.93;;;3.33;;
17917;SDS011;9084;50.956;3.106;2023-04-26T00:52:23;7.00;;;3.63;;
17917;SDS011;9084;50.956;3.106;2023-04-26T00:54:50;5.73;;;3.57;;
17917;SDS011;9084;50.956;3.106;2023-04-26T00:57:17;5.60;;;3.70;;
17917;SDS011;9084;50.956;3.106;2023-04-26T00:59:43;4.57;;;3.53;;
17917;SDS011;9084;50.956;3.106;2023-04-26T01:02:08;5.97;;;3.80;;
17917;SDS011;9084;50.956;3.106;2023-04-26T01:04:34;6.70;;;3.40;;
17917;SDS011;9084;50.956;3.106;2023-04-26T01:07:03;4.13;;;3.10;;
17917;SDS011;9084;50.956;3.106;2023-04-26T01:09:29;4.23;;;3.63;;
17917;SDS011;9084;50.956;3.106;2023-04-26T01:11:59;7.20;;;3.90;;
17917;SDS011;9084;50.956;3.106;2023-04-26T01:14:27;6.07;;;3.37;;
17917;SDS011;9084;50.956;3.106;2023-04-26T01:16:56;3.80;;;3.50;;
17917;SDS011;9084;50.956;3.106;2023-04-26T01:19:22;6.37;;;3.80;;
17917;SDS011;9084;50.956;3.106;2023-04-26T01:21:48;5.50;;;3.77;;
17917;SDS011;9084;50.956;3.106;2023-04-26T01:24:13;4.57;;;3.50;;
17917;SDS011;9084;50.956;3.106;2023-04-26T01:26:42;3.53;;;3.20;;
17917;SDS011;9084;50.956;3.106;2023-04-26T01:29:19;4.73;;;3.50;;
17917;SDS011;9084;50.956;3.106;2023-04-26T01:31:46;4.37;;;3.57;;
17917;SDS011;9084;50.956;3.106;2023-04-26T01:34:17;3.87;;;3.50;;
17917;SDS011;9084;50.956;3.106;2023-04-26T01:36:42;5.10;;;3.70;;
17917;SDS011;9084;50.956;3.106;2023-04-26T01:39:08;4.97;;;3.53;;
17917;SDS011;9084;50.956;3.106;2023-04-26T01:41:34;3.67;;;3.00;;
17917;SDS011;9084;50.956;3.106;2023-04-26T01:43:59;3.33;;;3.03;;
17917;SDS011;9084;50.956;3.106;2023-04-26T01:46:25;4.03;;;3.53;;
17917;SDS011;9084;50.956;3.106;2023-04-26T01:48:53;5.97;;;3.63;;
17917;SDS011;9084;50.956;3.106;2023-04-26T01:51:19;5.03;;;3.70;;
17917;SDS011;9084;50.956;3.106;2023-04-26T01:53:47;4.03;;;3.37;;
17917;SDS011;9084;50.956;3.106;2023-04-26T01:56:15;4.87;;;3.63;;
17917;SDS011;9084;50.956;3.106;2023-04-26T01:58:42;5.53;;;3.97;;
17917;SDS011;9084;50.956;3.106;2023-04-26T02:01:10;4.50;;;3.97;;
17917;SDS011;9084;50.956;3.106;2023-04-26T02:03:36;5.80;;;3.63;;
17917;SDS011;9084;50.956;3.106;2023-04-26T02:06:04;4.63;;;3.50;;
17917;SDS011;9084;50.956;3.106;2023-04-26T02:08:30;4.77;;;3.50;;
17917;SDS011;9084;50.956;3.106;2023-04-26T02:10:57;4.47;;;3.30;;
17917;SDS011;9084;50.956;3.106;2023-04-26T02:13:23;4.47;;;3.93;;
17917;SDS011;9084;50.956;3.106;2023-04-26T02:15:49;3.63;;;3.27;;
17917;SDS011;9084;50.956;3.106;2023-04-26T02:18:15;5.00;;;3.20;;
17917;SDS011;9084;50.956;3.106;2023-04-26T02:20:42;4.97;;;3.20;;
17917;SDS011;9084;50.956;3.106;2023-04-26T02:23:10;3.87;;;3.40;;
17917;SDS011;9084;50.956;3.106;2023-04-26T02:25:38;3.67;;;3.07;;
17917;SDS011;9084;50.956;3.106;2023-04-26T02:28:06;3.73;;;3.30;;
17917;SDS011;9084;50.956;3.106;2023-04-26T02:30:31;5.43;;;4.07;;
17917;SDS011;9084;50.956;3.106;2023-04-26T02:32:59;4.50;;;4.00;;
17917;SDS011;9084;50.956;3.106;2023-04-26T02:35:28;4.77;;;3.63;;
17917;SDS011;9084;50.956;3.106;2023-04-26T02:37:57;5.13;;;4.40;;
17917;SDS011;9084;50.956;3.106;2023-04-26T02:40:23;4.40;;;3.60;;
17917;SDS011;9084;50.956;3.106;2023-04-26T02:42:48;6.27;;;3.93;;
17917;SDS011;9084;50.956;3.106;2023-04-26T02:45:14;4.40;;;3.97;;
17917;SDS011;9084;50.956;3.106;2023-04-26T02:47:39;4.50;;;3.40;;
17917;SDS011;9084;50.956;3.106;2023-04-26T02:50:05;5.13;;;3.70;;
17917;SDS011;9084;50.956;3.106;2023-04-26T02:52:37;5.37;;;4.20;;
17917;SDS011;9084;50.956;3.106;2023-04-26T02:55:05;4.40;;;3.60;;
17917;SDS011;9084;50.956;3.106;2023-04-26T02:57:31;6.17;;;4.33;;
17917;SDS011;9084;50.956;3.106;2023-04-26T03:00:00;6.60;;;3.90;;
17917;SDS011;9084;50.956;3.106;2023-04-26T03:02:28;7.60;;;4.03;;
17917;SDS011;9084;50.956;3.106;2023-04-26T03:04:56;4.30;;;3.90;;
17917;SDS011;9084;50.956;3.106;2023-04-26T03:07:21;4.60;;;3.70;;
17917;SDS011;9084;50.956;3.106;2023-04-26T03:09:49;5.67;;;3.97;;
17917;SDS011;9084;50.956;3.106;2023-04-26T03:12:15;6.57;;;3.97;;
17917;SDS011;9084;50.956;3.106;2023-04-26T03:14:43;6.13;;;4.00;;
17917;SDS011;9084;50.956;3.106;2023-04-26T03:17:09;4.13;;;3.37;;
17917;SDS011;9084;50.956;3.106;2023-04-26T03:19:34;5.27;;;3.70;;
17917;SDS011;9084;50.956;3.106;2023-04-26T03:22:00;5.77;;;3.60;;
17917;SDS011;9084;50.956;3.106;2023-04-26T03:24:26;4.37;;;3.90;;
17917;SDS011;9084;50.956;3.106;2023-04-26T03:26:52;5.70;;;3.87;;
17917;SDS011;9084;50.956;3.106;2023-04-26T03:29:17;4.70;;;4.03;;
17917;SDS011;9084;50.956;3.106;2023-04-26T03:31:43;7.30;;;4.43;;
17917;SDS011;9084;50.956;3.106;2023-04-26T03:34:11;5.70;;;3.53;;
17917;SDS011;9084;50.956;3.106;2023-04-26T03:36:36;6.30;;;3.90;;
17917;SDS011;9084;50.956;3.106;2023-04-26T03:39:02;4.63;;;4.23;;
17917;SDS011;9084;50.956;3.106;2023-04-26T03:41:31;5.43;;;4.23;;
17917;SDS011;9084;50.956;3.106;2023-04-26T03:44:00;5.43;;;4.40;;
17917;SDS011;9084;50.956;3.106;2023-04-26T03:46:26;5.67;;;4.23;;
17917;SDS011;9084;50.956;3.106;2023-04-26T03:48:52;6.00;;;4.50;;
17917;SDS011;9084;50.956;3.106;2023-04-26T03:51:20;3.83;;;3.40;;
17917;SDS011;9084;50.956;3.106;2023-04-26T03:53:46;3.83;;;3.53;;
17917;SDS011;9084;50.956;3.106;2023-04-26T03:56:12;4.63;;;4.10;;
17917;SDS011;9084;50.956;3.106;2023-04-26T03:58:38;4.67;;;3.63;;
17917;SDS011;9084;50.956;3.106;2023-04-26T04:01:04;4.10;;;3.53;;
17917;SDS011;9084;50.956;3.106;2023-04-26T04:03:32;5.63;;;3.70;;
17917;SDS011;9084;50.956;3.106;2023-04-26T04:05:58;4.77;;;3.57;;
17917;SDS011;9084;50.956;3.106;2023-04-26T04:08:25;5.77;;;4.33;;
17917;SDS011;9084;50.956;3.106;2023-04-26T04:10:54;7.20;;;4.33;;
17917;SDS011;9084;50.956;3.106;2023-04-26T04:13:20;7.17;;;4.37;;
17917;SDS011;9084;50.956;3.106;2023-04-26T04:15:48;5.97;;;4.23;;
17917;SDS011;9084;50.956;3.106;2023-04-26T04:18:14;4.83;;;3.80;;
17917;SDS011;9084;50.956;3.106;2023-04-26T04:20:40;3.90;;;3.50;;
17917;SDS011;9084;50.956;3.106;2023-04-26T04:23:08;4.47;;;4.07;;
17917;SDS011;9084;50.956;3.106;2023-04-26T04:25:34;5.17;;;3.90;;
17917;SDS011;9084;50.956;3.106;2023-04-26T04:28:00;5.50;;;4.57;;
17917;SDS011;9084;50.956;3.106;2023-04-26T04:30:27;4.70;;;4.30;;
17917;SDS011;9084;50.956;3.106;2023-04-26T04:32:53;5.47;;;4.20;;
17917;SDS011;9084;50.956;3.106;2023-04-26T04:35:21;5.27;;;4.13;;
17917;SDS011;9084;50.956;3.106;2023-04-26T04:37:47;6.33;;;4.20;;
17917;SDS011;9084;50.956;3.106;2023-04-26T04:40:14;9.60;;;4.77;;
17917;SDS011;9084;50.956;3.106;2023-04-26T04:42:45;5.73;;;4.80;;
17917;SDS011;9084;50.956;3.106;2023-04-26T04:45:13;5.73;;;4.67;;
17917;SDS011;9084;50.956;3.106;2023-04-26T04:47:39;4.73;;;3.97;;
17917;SDS011;9084;50.956;3.106;2023-04-26T04:50:05;5.87;;;4.17;;
17917;SDS011;9084;50.956;3.106;2023-04-26T04:52:32;4.90;;;4.40;;
17917;SDS011;9084;50.956;3.106;2023-04-26T04:55:03;6.60;;;4.33;;
17917;SDS011;9084;50.956;3.106;2023-04-26T04:57:29;5.83;;;5.10;;
17917;SDS011;9084;50.956;3.106;2023-04-26T04:59:59;7.80;;;4.37;;
17917;SDS011;9084;50.956;3.106;2023-04-26T05:02:34;8.83;;;4.93;;
17917;SDS011;9084;50.956;3.106;2023-04-26T05:05:07;6.90;;;4.60;;
17917;SDS011;9084;50.956;3.106;2023-04-26T05:07:34;7.50;;;4.87;;
17917;SDS011;9084;50.956;3.106;2023-04-26T05:10:01;5.70;;;4.50;;
17917;SDS011;9084;50.956;3.106;2023-04-26T05:12:30;5.57;;;4.83;;
17917;SDS011;9084;50.956;3.106;2023-04-26T05:14:58;4.63;;;4.20;;
17917;SDS011;9084;50.956;3.106;2023-04-26T05:17:25;6.10;;;4.13;;
17917;SDS011;9084;50.956;3.106;2023-04-26T05:19:51;5.30;;;4.77;;
17917;SDS011;9084;50.956;3.106;2023-04-26T05:22:17;7.33;;;5.27;;
17917;SDS011;9084;50.956;3.106;2023-04-26T05:24:45;8.40;;;4.13;;
17917;SDS011;9084;50.956;3.106;2023-04-26T05:27:14;6.47;;;4.13;;
17917;SDS011;9084;50.956;3.106;2023-04-26T05:29:40;5.57;;;4.70;;
17917;SDS011;9084;50.956;3.106;2023-04-26T05:32:05;5.97;;;4.63;;
17917;SDS011;9084;50.956;3.106;2023-04-26T05:34:31;7.43;;;4.20;;
17917;SDS011;9084;50.956;3.106;2023-04-26T05:37:00;5.33;;;4.43;;
17917;SDS011;9084;50.956;3.106;2023-04-26T05:39:28;4.10;;;3.70;;
17917;SDS011;9084;50.956;3.106;2023-04-26T05:41:54;7.10;;;4.47;;
17917;SDS011;9084;50.956;3.106;2023-04-26T05:44:20;5.00;;;4.07;;
17917;SDS011;9084;50.956;3.106;2023-04-26T05:46:45;6.57;;;5.03;;
17917;SDS011;9084;50.956;3.106;2023-04-26T05:49:13;6.53;;;4.60;;
17917;SDS011;9084;50.956;3.106;2023-04-26T05:51:39;9.60;;;4.93;;
17917;SDS011;9084;50.956;3.106;2023-04-26T05:54:05;7.63;;;5.10;;
17917;SDS011;9084;50.956;3.106;2023-04-26T05:56:33;7.70;;;4.87;;
17917;SDS011;9084;50.956;3.106;2023-04-26T05:58:59;6.67;;;4.50;;
17917;SDS011;9084;50.956;3.106;2023-04-26T06:01:25;8.07;;;5.40;;
17917;SDS011;9084;50.956;3.106;2023-04-26T06:03:52;6.10;;;5.40;;
17917;SDS011;9084;50.956;3.106;2023-04-26T06:06:18;7.13;;;6.40;;
17917;SDS011;9084;50.956;3.106;2023-04-26T06:08:46;7.67;;;6.20;;
17917;SDS011;9084;50.956;3.106;2023-04-26T06:11:14;9.43;;;6.33;;
17917;SDS011;9084;50.956;3.106;2023-04-26T06:13:42;7.47;;;5.93;;
17917;SDS011;9084;50.956;3.106;2023-04-26T06:16:10;7.03;;;5.23;;
17917;SDS011;9084;50.956;3.106;2023-04-26T06:18:38;7.33;;;6.10;;
17917;SDS011;9084;50.956;3.106;2023-04-26T06:21:04;10.80;;;6.10;;
17917;SDS011;9084;50.956;3.106;2023-04-26T06:23:30;10.60;;;5.37;;
17917;SDS011;9084;50.956;3.106;2023-04-26T06:25:56;11.87;;;6.10;;
17917;SDS011;9084;50.956;3.106;2023-04-26T06:28:24;9.20;;;5.70;;
17917;SDS011;9084;50.956;3.106;2023-04-26T06:30:50;6.83;;;5.60;;
17917;SDS011;9084;50.956;3.106;2023-04-26T06:33:18;8.70;;;5.43;;
17917;SDS011;9084;50.956;3.106;2023-04-26T06:35:43;8.57;;;5.45;;
17917;SDS011;9084;50.956;3.106;2023-04-26T06:38:12;6.53;;;5.47;;
17917;SDS011;9084;50.956;3.106;2023-04-26T06:40:38;8.60;;;6.45;;
17917;SDS011;9084;50.956;3.106;2023-04-26T06:43:04;9.32;;;6.30;;
17917;SDS011;9084;50.956;3.106;2023-04-26T06:45:29;11.35;;;6.07;;
17917;SDS011;9084;50.956;3.106;2023-04-26T06:47:56;11.20;;;5.70;;
17917;SDS011;9084;50.956;3.106;2023-04-26T06:50:24;9.73;;;5.97;;
17917;SDS011;9084;50.956;3.106;2023-04-26T06:52:52;8.18;;;5.78;;
17917;SDS011;9084;50.956;3.106;2023-04-26T06:55:18;10.45;;;6.28;;
17917;SDS011;9084;50.956;3.106;2023-04-26T06:57:44;8.57;;;5.53;;
17917;SDS011;9084;50.956;3.106;2023-04-26T07:00:14;8.98;;;5.45;;
17917;SDS011;9084;50.956;3.106;2023-04-26T07:02:40;6.90;;;5.45;;
17917;SDS011;9084;50.956;3.106;2023-04-26T07:05:08;9.10;;;5.88;;
17917;SDS011;9084;50.956;3.106;2023-04-26T07:07:36;7.38;;;5.47;;
17917;SDS011;9084;50.956;3.106;2023-04-26T07:10:02;10.50;;;5.00;;
17917;SDS011;9084;50.956;3.106;2023-04-26T07:12:31;7.65;;;4.72;;
17917;SDS011;9084;50.956;3.106;2023-04-26T07:14:58;7.97;;;5.65;;
17917;SDS011;9084;50.956;3.106;2023-04-26T07:17:29;8.68;;;6.00;;
17917;SDS011;9084;50.956;3.106;2023-04-26T07:19:57;7.82;;;4.90;;
17917;SDS011;9084;50.956;3.106;2023-04-26T07:22:22;6.43;;;5.13;;
17917;SDS011;9084;50.956;3.106;2023-04-26T07:24:48;10.02;;;5.45;;
17917;SDS011;9084;50.956;3.106;2023-04-26T07:27:14;9.60;;;5.63;;
17917;SDS011;9084;50.956;3.106;2023-04-26T07:29:39;9.75;;;5.63;;
17917;SDS011;9084;50.956;3.106;2023-04-26T07:32:05;8.70;;;5.22;;
17917;SDS011;9084;50.956;3.106;2023-04-26T07:34:33;9.77;;;5.05;;
17917;SDS011;9084;50.956;3.106;2023-04-26T07:36:58;11.25;;;4.88;;
17917;SDS011;9084;50.956;3.106;2023-04-26T07:39:24;11.13;;;4.38;;
17917;SDS011;9084;50.956;3.106;2023-04-26T07:41:52;10.07;;;4.50;;
17917;SDS011;9084;50.956;3.106;2023-04-26T07:44:19;11.23;;;5.60;;
17917;SDS011;9084;50.956;3.106;2023-04-26T07:46:49;13.45;;;4.30;;
17917;SDS011;9084;50.956;3.106;2023-04-26T07:49:15;9.18;;;4.90;;
17917;SDS011;9084;50.956;3.106;2023-04-26T07:51:43;8.98;;;4.75;;
17917;SDS011;9084;50.956;3.106;2023-04-26T07:54:09;7.68;;;4.20;;
17917;SDS011;9084;50.956;3.106;2023-04-26T07:56:35;7.07;;;3.70;;
17917;SDS011;9084;50.956;3.106;2023-04-26T07:59:01;9.32;;;2.97;;
17917;SDS011;9084;50.956;3.106;2023-04-26T08:01:29;9.45;;;3.53;;
17917;SDS011;9084;50.956;3.106;2023-04-26T08:03:56;10.07;;;2.97;;
17917;SDS011;9084;50.956;3.106;2023-04-26T08:06:22;7.35;;;3.25;;
17917;SDS011;9084;50.956;3.106;2023-04-26T08:08:48;6.50;;;2.90;;
17917;SDS011;9084;50.956;3.106;2023-04-26T08:11:14;6.40;;;3.60;;
17917;SDS011;9084;50.956;3.106;2023-04-26T08:13:43;7.43;;;3.10;;
17917;SDS011;9084;50.956;3.106;2023-04-26T08:16:08;6.95;;;2.58;;
17917;SDS011;9084;50.956;3.106;2023-04-26T08:18:34;6.07;;;1.92;;
17917;SDS011;9084;50.956;3.106;2023-04-26T08:20:59;3.60;;;1.75;;
17917;SDS011;9084;50.956;3.106;2023-04-26T08:23:31;4.38;;;2.30;;
17917;SDS011;9084;50.956;3.106;2023-04-26T08:25:59;3.20;;;2.63;;
17917;SDS011;9084;50.956;3.106;2023-04-26T08:28:25;4.60;;;2.25;;
17917;SDS011;9084;50.956;3.106;2023-04-26T08:30:51;4.13;;;2.40;;
17917;SDS011;9084;50.956;3.106;2023-04-26T08:33:17;6.20;;;3.20;;
17917;SDS011;9084;50.956;3.106;2023-04-26T08:35:45;5.13;;;3.17;;
17917;SDS011;9084;50.956;3.106;2023-04-26T08:38:13;4.47;;;2.90;;
17917;SDS011;9084;50.956;3.106;2023-04-26T08:40:46;6.68;;;2.72;;
17917;SDS011;9084;50.956;3.106;2023-04-26T08:43:12;4.85;;;2.75;;
17917;SDS011;9084;50.956;3.106;2023-04-26T08:45:41;3.40;;;2.45;;
17917;SDS011;9084;50.956;3.106;2023-04-26T08:48:13;6.80;;;2.42;;
17917;SDS011;9084;50.956;3.106;2023-04-26T08:50:40;3.67;;;2.13;;
17917;SDS011;9084;50.956;3.106;2023-04-26T08:53:09;5.00;;;2.55;;
17917;SDS011;9084;50.956;3.106;2023-04-26T08:55:40;3.05;;;2.53;;
17917;SDS011;9084;50.956;3.106;2023-04-26T08:58:09;5.22;;;2.30;;
17917;SDS011;9084;50.956;3.106;2023-04-26T09:00:38;5.45;;;2.88;;
17917;SDS011;9084;50.956;3.106;2023-04-26T09:03:04;2.80;;;1.65;;
17917;SDS011;9084;50.956;3.106;2023-04-26T09:05:33;4.75;;;1.95;;
17917;SDS011;9084;50.956;3.106;2023-04-26T09:08:00;2.97;;;2.22;;
17917;SDS011;9084;50.956;3.106;2023-04-26T09:10:27;4.03;;;2.60;;
17917;SDS011;9084;50.956;3.106;2023-04-26T09:12:56;6.22;;;3.03;;
17917;SDS011;9084;50.956;3.106;2023-04-26T09:15:23;4.38;;;2.90;;
17917;SDS011;9084;50.956;3.106;2023-04-26T09:17:52;8.05;;;3.13;;
17917;SDS011;9084;50.956;3.106;2023-04-26T09:20:25;10.15;;;3.28;;
17917;SDS011;9084;50.956;3.106;2023-04-26T09:23:02;4.43;;;2.78;;
17917;SDS011;9084;50.956;3.106;2023-04-26T09:25:30;6.80;;;3.30;;
17917;SDS011;9084;50.956;3.106;2023-04-26T09:27:56;7.82;;;3.05;;
17917;SDS011;9084;50.956;3.106;2023-04-26T09:30:23;5.90;;;3.08;;
17917;SDS011;9084;50.956;3.106;2023-04-26T09:32:56;5.47;;;3.80;;
17917;SDS011;9084;50.956;3.106;2023-04-26T09:40:28;6.93;;;3.50;;
17917;SDS011;9084;50.956;3.106;2023-04-26T09:42:59;5.25;;;3.70;;
17917;SDS011;9084;50.956;3.106;2023-04-26T09:45:28;4.68;;;2.92;;
17917;SDS011;9084;50.956;3.106;2023-04-26T09:48:06;7.65;;;3.15;;
17917;SDS011;9084;50.956;3.106;2023-04-26T09:50:47;4.93;;;3.17;;
17917;SDS011;9084;50.956;3.106;2023-04-26T10:01:22;8.05;;;4.28;;
17917;SDS011;9084;50.956;3.106;2023-04-26T10:03:48;6.63;;;3.80;;
17917;SDS011;9084;50.956;3.106;2023-04-26T10:06:14;17.70;;;4.07;;
17917;SDS011;9084;50.956;3.106;2023-04-26T10:08:40;5.18;;;3.30;;
17917;SDS011;9084;50.956;3.106;2023-04-26T10:11:06;4.15;;;3.10;;
17917;SDS011;9084;50.956;3.106;2023-04-26T10:13:34;4.63;;;3.17;;
17917;SDS011;9084;50.956;3.106;2023-04-26T10:16:00;5.40;;;3.60;;
17917;SDS011;9084;50.956;3.106;2023-04-26T10:18:27;5.82;;;3.10;;
17917;SDS011;9084;50.956;3.106;2023-04-26T10:20:54;4.70;;;3.40;;
17917;SDS011;9084;50.956;3.106;2023-04-26T10:23:23;5.57;;;2.83;;
17917;SDS011;9084;50.956;3.106;2023-04-26T10:25:49;4.15;;;2.35;;
17917;SDS011;9084;50.956;3.106;2023-04-26T10:28:52;5.43;;;2.63;;
17917;SDS011;9084;50.956;3.106;2023-04-26T10:31:04;3.72;;;2.53;;
17917;SDS011;9084;50.956;3.106;2023-04-26T10:33:31;7.20;;;3.20;;
17917;SDS011;9084;50.956;3.106;2023-04-26T10:36:06;3.67;;;2.80;;
17917;SDS011;9084;50.956;3.106;2023-04-26T10:38:37;5.10;;;3.08;;
17917;SDS011;9084;50.956;3.106;2023-04-26T10:43:54;4.38;;;3.38;;
17917;SDS011;9084;50.956;3.106;2023-04-26T10:46:33;7.13;;;3.08;;
17917;SDS011;9084;50.956;3.106;2023-04-26T10:49:14;4.45;;;3.15;;
17917;SDS011;9084;50.956;3.106;2023-04-26T10:54:53;3.72;;;2.83;;
17917;SDS011;9084;50.956;3.106;2023-04-26T11:03:02;6.13;;;3.15;;
17917;SDS011;9084;50.956;3.106;2023-04-26T11:05:52;3.70;;;3.10;;
17917;SDS011;9084;50.956;3.106;2023-04-26T11:08:27;7.78;;;3.22;;
17917;SDS011;9084;50.956;3.106;2023-04-26T11:10:57;6.40;;;3.67;;
17917;SDS011;9084;50.956;3.106;2023-04-26T11:13:32;5.35;;;3.50;;
17917;SDS011;9084;50.956;3.106;2023-04-26T11:16:01;5.45;;;3.20;;
17917;SDS011;9084;50.956;3.106;2023-04-26T11:18:33;5.85;;;3.53;;
17917;SDS011;9084;50.956;3.106;2023-04-26T11:21:00;6.38;;;3.47;;
17917;SDS011;9084;50.956;3.106;2023-04-26T11:23:27;4.57;;;3.38;;
17917;SDS011;9084;50.956;3.106;2023-04-26T11:25:58;4.18;;;3.22;;
17917;SDS011;9084;50.956;3.106;2023-04-26T11:28:28;5.03;;;3.88;;
17917;SDS011;9084;50.956;3.106;2023-04-26T11:30:55;7.28;;;4.43;;
17917;SDS011;9084;50.956;3.106;2023-04-26T11:33:21;7.43;;;4.05;;
17917;SDS011;9084;50.956;3.106;2023-04-26T11:35:50;4.70;;;3.55;;
17917;SDS011;9084;50.956;3.106;2023-04-26T11:38:17;5.82;;;3.88;;
17917;SDS011;9084;50.956;3.106;2023-04-26T11:40:51;5.20;;;4.22;;
17917;SDS011;9084;50.956;3.106;2023-04-26T11:43:21;8.00;;;4.00;;
17917;SDS011;9084;50.956;3.106;2023-04-26T11:45:57;6.97;;;4.53;;
17917;SDS011;9084;50.956;3.106;2023-04-26T11:48:26;5.53;;;3.63;;
17917;SDS011;9084;50.956;3.106;2023-04-26T11:50:55;6.13;;;3.55;;
17917;SDS011;9084;50.956;3.106;2023-04-26T11:53:22;6.55;;;4.35;;
17917;SDS011;9084;50.956;3.106;2023-04-26T11:55:49;12.50;;;4.60;;
17917;SDS011;9084;50.956;3.106;2023-04-26T11:58:15;8.35;;;3.55;;
17917;SDS011;9084;50.956;3.106;2023-04-26T12:00:54;4.93;;;3.88;;
17917;SDS011;9084;50.956;3.106;2023-04-26T12:03:21;5.85;;;3.65;;
17917;SDS011;9084;50.956;3.106;2023-04-26T12:05:53;4.65;;;4.00;;
17917;SDS011;9084;50.956;3.106;2023-04-26T12:08:22;5.15;;;3.67;;
17917;SDS011;9084;50.956;3.106;2023-04-26T12:10:48;6.35;;;4.13;;
17917;SDS011;9084;50.956;3.106;2023-04-26T12:13:14;5.90;;;3.92;;
17917;SDS011;9084;50.956;3.106;2023-04-26T12:15:45;4.03;;;3.63;;
17917;SDS011;9084;50.956;3.106;2023-04-26T12:18:15;6.43;;;4.38;;
17917;SDS011;9084;50.956;3.106;2023-04-26T12:20:43;5.18;;;3.97;;
17917;SDS011;9084;50.956;3.106;2023-04-26T12:25:50;4.93;;;3.83;;
17917;SDS011;9084;50.956;3.106;2023-04-26T12:28:20;5.20;;;4.20;;
17917;SDS011;9084;50.956;3.106;2023-04-26T12:30:49;5.35;;;4.40;;
17917;SDS011;9084;50.956;3.106;2023-04-26T12:33:20;4.65;;;4.10;;
17917;SDS011;9084;50.956;3.106;2023-04-26T12:35:47;4.90;;;4.32;;
17917;SDS011;9084;50.956;3.106;2023-04-26T12:38:14;5.65;;;3.80;;
17917;SDS011;9084;50.956;3.106;2023-04-26T12:40:40;4.90;;;3.33;;
17917;SDS011;9084;50.956;3.106;2023-04-26T12:43:06;8.15;;;3.90;;
17917;SDS011;9084;50.956;3.106;2023-04-26T12:45:34;6.45;;;3.65;;
17917;SDS011;9084;50.956;3.106;2023-04-26T12:48:00;6.07;;;3.95;;
17917;SDS011;9084;50.956;3.106;2023-04-26T12:50:26;9.63;;;4.18;;
17917;SDS011;9084;50.956;3.106;2023-04-26T12:52:52;5.07;;;4.57;;
17917;SDS011;9084;50.956;3.106;2023-04-26T12:55:18;5.28;;;4.15;;
17917;SDS011;9084;50.956;3.106;2023-04-26T12:57:46;15.73;;;5.18;;
17917;SDS011;9084;50.956;3.106;2023-04-26T13:00:12;11.60;;;4.65;;
17917;SDS011;9084;50.956;3.106;2023-04-26T13:02:42;4.60;;;4.20;;
17917;SDS011;9084;50.956;3.106;2023-04-26T13:05:11;5.45;;;4.60;;
17917;SDS011;9084;50.956;3.106;2023-04-26T13:07:37;6.13;;;3.85;;
17917;SDS011;9084;50.956;3.106;2023-04-26T13:10:05;4.60;;;4.20;;
17917;SDS011;9084;50.956;3.106;2023-04-26T13:12:31;5.70;;;3.97;;
17917;SDS011;9084;50.956;3.106;2023-04-26T13:15:00;6.57;;;4.55;;
17917;SDS011;9084;50.956;3.106;2023-04-26T13:17:26;5.32;;;4.20;;
17917;SDS011;9084;50.956;3.106;2023-04-26T13:19:52;4.65;;;4.18;;
17917;SDS011;9084;50.956;3.106;2023-04-26T13:22:18;5.32;;;4.57;;
17917;SDS011;9084;50.956;3.106;2023-04-26T13:24:44;5.55;;;4.53;;
17917;SDS011;9084;50.956;3.106;2023-04-26T13:27:10;5.20;;;4.32;;
17917;SDS011;9084;50.956;3.106;2023-04-26T13:29:37;5.82;;;4.28;;
17917;SDS011;9084;50.956;3.106;2023-04-26T13:32:02;5.55;;;3.85;;
17917;SDS011;9084;50.956;3.106;2023-04-26T13:34:30;6.65;;;4.35;;
17917;SDS011;9084;50.956;3.106;2023-04-26T13:36:56;4.88;;;4.35;;
17917;SDS011;9084;50.956;3.106;2023-04-26T13:39:23;5.47;;;4.88;;
17917;SDS011;9084;50.956;3.106;2023-04-26T13:41:50;4.78;;;4.28;;
17917;SDS011;9084;50.956;3.106;2023-04-26T13:44:19;5.63;;;4.18;;
17917;SDS011;9084;50.956;3.106;2023-04-26T13:46:47;5.38;;;4.88;;
17917;SDS011;9084;50.956;3.106;2023-04-26T13:49:15;5.15;;;4.15;;
17917;SDS011;9084;50.956;3.106;2023-04-26T13:51:41;5.65;;;5.00;;
17917;SDS011;9084;50.956;3.106;2023-04-26T13:54:09;5.60;;;5.03;;
17917;SDS011;9084;50.956;3.106;2023-04-26T13:56:35;5.28;;;4.38;;
17917;SDS011;9084;50.956;3.106;2023-04-26T13:59:01;5.38;;;4.78;;
17917;SDS011;9084;50.956;3.106;2023-04-26T14:01:29;4.93;;;4.43;;
17917;SDS011;9084;50.956;3.106;2023-04-26T14:03:55;7.32;;;4.35;;
17917;SDS011;9084;50.956;3.106;2023-04-26T14:06:21;4.70;;;4.20;;
17917;SDS011;9084;50.956;3.106;2023-04-26T14:08:49;7.35;;;3.78;;
17917;SDS011;9084;50.956;3.106;2023-04-26T14:11:17;7.80;;;4.40;;
17917;SDS011;9084;50.956;3.106;2023-04-26T14:13:43;5.72;;;4.57;;
17917;SDS011;9084;50.956;3.106;2023-04-26T14:16:11;5.78;;;4.43;;
17917;SDS011;9084;50.956;3.106;2023-04-26T14:18:36;8.65;;;6.80;;
17917;SDS011;9084;50.956;3.106;2023-04-26T14:21:08;9.23;;;8.38;;
17917;SDS011;9084;50.956;3.106;2023-04-26T14:23:43;9.80;;;8.90;;
17917;SDS011;9084;50.956;3.106;2023-04-26T14:26:13;10.45;;;9.45;;
17917;SDS011;9084;50.956;3.106;2023-04-26T14:28:39;10.43;;;9.43;;
17917;SDS011;9084;50.956;3.106;2023-04-26T14:31:05;10.57;;;9.68;;
17917;SDS011;9084;50.956;3.106;2023-04-26T14:33:31;10.00;;;9.10;;
17917;SDS011;9084;50.956;3.106;2023-04-26T14:35:57;11.77;;;9.77;;
17917;SDS011;9084;50.956;3.106;2023-04-26T14:38:23;9.77;;;8.82;;
17917;SDS011;9084;50.956;3.106;2023-04-26T14:40:49;10.10;;;9.10;;
17917;SDS011;9084;50.956;3.106;2023-04-26T14:43:17;9.60;;;8.55;;
17917;SDS011;9084;50.956;3.106;2023-04-26T14:45:45;9.13;;;8.23;;
17917;SDS011;9084;50.956;3.106;2023-04-26T14:48:10;9.70;;;8.70;;
17917;SDS011;9084;50.956;3.106;2023-04-26T14:50:36;9.43;;;8.38;;
17917;SDS011;9084;50.956;3.106;2023-04-26T14:53:02;11.48;;;8.88;;
17917;SDS011;9084;50.956;3.106;2023-04-26T14:55:28;9.60;;;8.70;;
17917;SDS011;9084;50.956;3.106;2023-04-26T14:57:53;9.10;;;8.20;;
17917;SDS011;9084;50.956;3.106;2023-04-26T15:00:19;8.48;;;7.70;;
17917;SDS011;9084;50.956;3.106;2023-04-26T15:02:46;8.68;;;7.97;;
17917;SDS011;9084;50.956;3.106;2023-04-26T15:05:12;9.10;;;8.20;;
17917;SDS011;9084;50.956;3.106;2023-04-26T15:07:40;12.38;;;8.60;;
17917;SDS011;9084;50.956;3.106;2023-04-26T15:10:06;9.30;;;8.27;;
17917;SDS011;9084;50.956;3.106;2023-04-26T15:12:35;10.48;;;9.50;;
17917;SDS011;9084;50.956;3.106;2023-04-26T15:15:01;9.82;;;8.80;;
17917;SDS011;9084;50.956;3.106;2023-04-26T15:17:27;10.95;;;9.13;;
17917;SDS011;9084;50.956;3.106;2023-04-26T15:19:55;10.10;;;9.10;;
17917;SDS011;9084;50.956;3.106;2023-04-26T15:22:21;10.57;;;9.65;;
17917;SDS011;9084;50.956;3.106;2023-04-26T15:24:47;10.57;;;9.35;;
17917;SDS011;9084;50.956;3.106;2023-04-26T15:27:14;11.18;;;9.32;;
17917;SDS011;9084;50.956;3.106;2023-04-26T15:29:40;9.25;;;8.35;;